Hampden, Canada
Current Conditions -  °F | °C
As of 3:00 PM on Thursday 23 Oct 2014 (Local Time) from CYDF Reporting Station
Scattered Clouds Scattered Clouds  
Wind Chill: 50°   Ceiling: Unl
Heat Index: 50°   Visibility: 15mi
Dew Point: 37°   Wind: 2mph
Humidity: 62%   Direction: NA
Pressure: 30.28"   Gusts: NA
Location:  49.53°N, 56.87°W
Report Text: CYDF 231700Z VRB02KT 15SM SCT250 10/03 A3028 RMK CI4 SLP254
Loading
Personal Weather Stations






























Interactive Weather Map
Tropical Storm Tracking
New forecast layout! Learn more

10-Day Weather Forecast

Advertisements
Track Severe Weather on mobile